sensor_id;sensor_type;location;lat;lon;timestamp;temperature;humidity
56426;DHT22;42330;43.620;3.856;2022-11-09T00:02:25;18.10;99.90
56426;DHT22;42330;43.620;3.856;2022-11-09T00:04:50;18.00;99.90
56426;DHT22;42330;43.620;3.856;2022-11-09T00:07:16;18.00;99.90
56426;DHT22;42330;43.620;3.856;2022-11-09T00:09:41;18.00;99.90
56426;DHT22;42330;43.620;3.856;2022-11-09T00:12:07;18.00;99.90
56426;DHT22;42330;43.620;3.856;2022-11-09T00:14:33;18.00;99.90
56426;DHT22;42330;43.620;3.856;2022-11-09T00:16:59;18.00;99.90
56426;DHT22;42330;43.620;3.856;2022-11-09T00:19:25;18.00;99.90
56426;DHT22;42330;43.620;3.856;2022-11-09T00:21:51;18.00;99.90
56426;DHT22;42330;43.620;3.856;2022-11-09T00:24:17;18.00;99.90
56426;DHT22;42330;43.620;3.856;2022-11-09T00:26:43;18.00;99.90
56426;DHT22;42330;43.620;3.856;2022-11-09T00:29:08;18.00;99.90
56426;DHT22;42330;43.620;3.856;2022-11-09T00:31:35;18.00;99.90
56426;DHT22;42330;43.620;3.856;2022-11-09T00:34:00;17.90;99.90
56426;DHT22;42330;43.620;3.856;2022-11-09T00:36:28;17.90;99.90
56426;DHT22;42330;43.620;3.856;2022-11-09T00:38:58;17.90;99.90
56426;DHT22;42330;43.620;3.856;2022-11-09T00:41:25;17.90;99.90
56426;DHT22;42330;43.620;3.856;2022-11-09T00:43:51;17.80;99.90
56426;DHT22;42330;43.620;3.856;2022-11-09T00:46:17;17.90;99.90
56426;DHT22;42330;43.620;3.856;2022-11-09T00:48:44;17.90;99.90
56426;DHT22;42330;43.620;3.856;2022-11-09T00:51:10;17.90;99.90
56426;DHT22;42330;43.620;3.856;2022-11-09T00:53:36;17.80;99.90
56426;DHT22;42330;43.620;3.856;2022-11-09T00:56:02;17.80;99.90
56426;DHT22;42330;43.620;3.856;2022-11-09T00:58:30;17.80;99.90
56426;DHT22;42330;43.620;3.856;2022-11-09T01:00:57;17.80;99.90
56426;DHT22;42330;43.620;3.856;2022-11-09T01:03:24;17.80;99.90
56426;DHT22;42330;43.620;3.856;2022-11-09T01:05:51;17.80;99.90
56426;DHT22;42330;43.620;3.856;2022-11-09T01:08:17;17.80;99.90
56426;DHT22;42330;43.620;3.856;2022-11-09T01:10:45;17.80;99.90
56426;DHT22;42330;43.620;3.856;2022-11-09T01:13:14;17.80;99.90
56426;DHT22;42330;43.620;3.856;2022-11-09T01:15:51;17.80;99.90
56426;DHT22;42330;43.620;3.856;2022-11-09T01:18:18;17.80;99.90
56426;DHT22;42330;43.620;3.856;2022-11-09T01:20:46;17.80;99.90
56426;DHT22;42330;43.620;3.856;2022-11-09T01:23:13;17.80;99.90
56426;DHT22;42330;43.620;3.856;2022-11-09T01:25:39;17.80;99.90
56426;DHT22;42330;43.620;3.856;2022-11-09T01:28:06;17.90;99.90
56426;DHT22;42330;43.620;3.856;2022-11-09T01:30:40;17.90;99.90
56426;DHT22;42330;43.620;3.856;2022-11-09T01:33:07;17.90;99.90
56426;DHT22;42330;43.620;3.856;2022-11-09T01:35:34;17.90;99.90
56426;DHT22;42330;43.620;3.856;2022-11-09T01:38:01;17.90;99.90
56426;DHT22;42330;43.620;3.856;2022-11-09T01:40:28;17.90;99.90
56426;DHT22;42330;43.620;3.856;2022-11-09T01:42:54;17.90;99.90
56426;DHT22;42330;43.620;3.856;2022-11-09T01:45:26;17.90;99.90
56426;DHT22;42330;43.620;3.856;2022-11-09T01:48:11;17.90;99.90
56426;DHT22;42330;43.620;3.856;2022-11-09T01:50:48;17.80;99.90
56426;DHT22;42330;43.620;3.856;2022-11-09T01:53:23;17.90;99.90
56426;DHT22;42330;43.620;3.856;2022-11-09T01:55:54;17.90;99.90
56426;DHT22;42330;43.620;3.856;2022-11-09T01:58:35;17.90;99.90
56426;DHT22;42330;43.620;3.856;2022-11-09T02:01:02;17.90;99.90
56426;DHT22;42330;43.620;3.856;2022-11-09T02:03:33;17.90;99.90
56426;DHT22;42330;43.620;3.856;2022-11-09T02:06:02;17.90;99.90
56426;DHT22;42330;43.620;3.856;2022-11-09T02:08:29;17.90;99.90
56426;DHT22;42330;43.620;3.856;2022-11-09T02:13:25;17.90;99.90
56426;DHT22;42330;43.620;3.856;2022-11-09T02:15:51;17.90;99.90
56426;DHT22;42330;43.620;3.856;2022-11-09T02:18:19;17.90;99.90
56426;DHT22;42330;43.620;3.856;2022-11-09T02:20:52;17.90;99.90
56426;DHT22;42330;43.620;3.856;2022-11-09T02:23:18;17.90;99.90
56426;DHT22;42330;43.620;3.856;2022-11-09T02:25:48;17.90;99.90
56426;DHT22;42330;43.620;3.856;2022-11-09T02:28:16;17.90;99.90
56426;DHT22;42330;43.620;3.856;2022-11-09T02:30:44;17.90;99.90
56426;DHT22;42330;43.620;3.856;2022-11-09T02:33:11;17.90;99.90
56426;DHT22;42330;43.620;3.856;2022-11-09T02:35:37;17.90;99.90
56426;DHT22;42330;43.620;3.856;2022-11-09T02:38:02;17.90;99.90
56426;DHT22;42330;43.620;3.856;2022-11-09T02:40:31;17.90;99.90
56426;DHT22;42330;43.620;3.856;2022-11-09T02:43:00;17.80;99.90
56426;DHT22;42330;43.620;3.856;2022-11-09T02:45:26;17.90;99.90
56426;DHT22;42330;43.620;3.856;2022-11-09T02:47:52;17.90;99.90
56426;DHT22;42330;43.620;3.856;2022-11-09T02:50:18;17.90;99.90
56426;DHT22;42330;43.620;3.856;2022-11-09T02:52:43;17.90;99.90
56426;DHT22;42330;43.620;3.856;2022-11-09T02:55:09;18.00;99.90
56426;DHT22;42330;43.620;3.856;2022-11-09T02:57:35;17.90;99.90
56426;DHT22;42330;43.620;3.856;2022-11-09T03:00:00;17.90;99.90
56426;DHT22;42330;43.620;3.856;2022-11-09T03:02:26;17.90;99.90
56426;DHT22;42330;43.620;3.856;2022-11-09T03:04:52;17.90;99.90
56426;DHT22;42330;43.620;3.856;2022-11-09T03:07:17;17.90;99.90
56426;DHT22;42330;43.620;3.856;2022-11-09T03:09:43;17.90;99.90
56426;DHT22;42330;43.620;3.856;2022-11-09T03:12:10;17.90;99.90
56426;DHT22;42330;43.620;3.856;2022-11-09T03:14:58;17.90;99.90
56426;DHT22;42330;43.620;3.856;2022-11-09T03:17:25;17.90;99.90
56426;DHT22;42330;43.620;3.856;2022-11-09T03:19:51;17.90;99.90
56426;DHT22;42330;43.620;3.856;2022-11-09T03:22:17;17.90;99.90
56426;DHT22;42330;43.620;3.856;2022-11-09T03:24:43;17.90;99.90
56426;DHT22;42330;43.620;3.856;2022-11-09T03:27:09;17.80;99.90
56426;DHT22;42330;43.620;3.856;2022-11-09T03:29:34;17.90;99.90
56426;DHT22;42330;43.620;3.856;2022-11-09T03:32:00;17.90;99.90
56426;DHT22;42330;43.620;3.856;2022-11-09T03:34:26;17.90;99.90
56426;DHT22;42330;43.620;3.856;2022-11-09T03:36:52;17.90;99.90
56426;DHT22;42330;43.620;3.856;2022-11-09T03:39:17;17.90;99.90
56426;DHT22;42330;43.620;3.856;2022-11-09T03:41:43;17.90;99.90
56426;DHT22;42330;43.620;3.856;2022-11-09T03:44:08;17.90;99.90
56426;DHT22;42330;43.620;3.856;2022-11-09T03:46:34;17.90;99.90
56426;DHT22;42330;43.620;3.856;2022-11-09T03:49:00;17.90;99.90
56426;DHT22;42330;43.620;3.856;2022-11-09T03:51:25;18.00;99.90
56426;DHT22;42330;43.620;3.856;2022-11-09T03:53:51;18.00;99.90
56426;DHT22;42330;43.620;3.856;2022-11-09T03:56:17;18.00;99.90
56426;DHT22;42330;43.620;3.856;2022-11-09T03:58:42;18.00;99.90
56426;DHT22;42330;43.620;3.856;2022-11-09T04:01:08;17.90;99.90
56426;DHT22;42330;43.620;3.856;2022-11-09T04:03:35;17.90;99.90
56426;DHT22;42330;43.620;3.856;2022-11-09T04:06:01;18.00;99.90
56426;DHT22;42330;43.620;3.856;2022-11-09T04:08:27;18.00;99.90
56426;DHT22;42330;43.620;3.856;2022-11-09T04:10:52;18.00;99.90
56426;DHT22;42330;43.620;3.856;2022-11-09T04:13:18;18.00;99.90
56426;DHT22;42330;43.620;3.856;2022-11-09T04:15:44;18.00;99.90
56426;DHT22;42330;43.620;3.856;2022-11-09T04:18:12;18.00;99.90
56426;DHT22;42330;43.620;3.856;2022-11-09T04:20:39;17.90;99.90
56426;DHT22;42330;43.620;3.856;2022-11-09T04:23:06;17.90;99.90
56426;DHT22;42330;43.620;3.856;2022-11-09T04:25:35;17.90;99.90
56426;DHT22;42330;43.620;3.856;2022-11-09T04:28:02;18.00;99.90
56426;DHT22;42330;43.620;3.856;2022-11-09T04:30:29;17.90;99.90
56426;DHT22;42330;43.620;3.856;2022-11-09T04:32:57;17.90;99.90
56426;DHT22;42330;43.620;3.856;2022-11-09T04:35:23;17.90;99.90
56426;DHT22;42330;43.620;3.856;2022-11-09T04:37:57;17.90;99.90
56426;DHT22;42330;43.620;3.856;2022-11-09T04:40:24;17.90;99.90
56426;DHT22;42330;43.620;3.856;2022-11-09T04:42:51;18.00;99.90
56426;DHT22;42330;43.620;3.856;2022-11-09T04:45:16;18.00;99.90
56426;DHT22;42330;43.620;3.856;2022-11-09T04:47:42;18.00;99.90
56426;DHT22;42330;43.620;3.856;2022-11-09T04:50:08;18.00;99.90
56426;DHT22;42330;43.620;3.856;2022-11-09T04:52:34;18.00;99.90
56426;DHT22;42330;43.620;3.856;2022-11-09T04:55:00;18.00;99.90
56426;DHT22;42330;43.620;3.856;2022-11-09T04:57:26;17.90;99.90
56426;DHT22;42330;43.620;3.856;2022-11-09T04:59:52;17.90;99.90
56426;DHT22;42330;43.620;3.856;2022-11-09T05:02:17;17.90;99.90
56426;DHT22;42330;43.620;3.856;2022-11-09T05:04:43;17.90;99.90
56426;DHT22;42330;43.620;3.856;2022-11-09T05:07:09;17.90;99.90
56426;DHT22;42330;43.620;3.856;2022-11-09T05:09:34;17.80;99.90
56426;DHT22;42330;43.620;3.856;2022-11-09T05:12:00;17.80;99.90
56426;DHT22;42330;43.620;3.856;2022-11-09T05:14:26;17.90;99.90
56426;DHT22;42330;43.620;3.856;2022-11-09T05:16:51;17.90;99.90
56426;DHT22;42330;43.620;3.856;2022-11-09T05:19:17;17.90;99.90
56426;DHT22;42330;43.620;3.856;2022-11-09T05:21:43;17.90;99.90
56426;DHT22;42330;43.620;3.856;2022-11-09T05:24:08;17.90;99.90
56426;DHT22;42330;43.620;3.856;2022-11-09T05:26:36;18.00;99.90
56426;DHT22;42330;43.620;3.856;2022-11-09T05:29:05;18.00;99.90
56426;DHT22;42330;43.620;3.856;2022-11-09T05:31:31;18.00;99.90
56426;DHT22;42330;43.620;3.856;2022-11-09T05:33:57;18.00;99.90
56426;DHT22;42330;43.620;3.856;2022-11-09T05:36:24;18.00;99.90
56426;DHT22;42330;43.620;3.856;2022-11-09T05:38:50;18.00;99.90
56426;DHT22;42330;43.620;3.856;2022-11-09T05:41:16;18.00;99.90
56426;DHT22;42330;43.620;3.856;2022-11-09T05:43:43;18.00;99.90
56426;DHT22;42330;43.620;3.856;2022-11-09T05:46:13;18.00;99.90
56426;DHT22;42330;43.620;3.856;2022-11-09T05:48:39;18.00;99.90
56426;DHT22;42330;43.620;3.856;2022-11-09T05:51:07;18.00;99.90
56426;DHT22;42330;43.620;3.856;2022-11-09T05:53:33;18.00;99.90
56426;DHT22;42330;43.620;3.856;2022-11-09T05:56:03;18.00;99.90
56426;DHT22;42330;43.620;3.856;2022-11-09T05:58:30;18.00;99.90
56426;DHT22;42330;43.620;3.856;2022-11-09T06:00:57;18.00;99.90
56426;DHT22;42330;43.620;3.856;2022-11-09T06:03:24;18.00;99.90
56426;DHT22;42330;43.620;3.856;2022-11-09T06:05:50;18.00;99.90
56426;DHT22;42330;43.620;3.856;2022-11-09T06:08:15;18.00;99.90
56426;DHT22;42330;43.620;3.856;2022-11-09T06:10:41;18.10;99.90
56426;DHT22;42330;43.620;3.856;2022-11-09T06:13:08;18.00;99.90
56426;DHT22;42330;43.620;3.856;2022-11-09T06:15:34;18.00;99.90
56426;DHT22;42330;43.620;3.856;2022-11-09T06:17:59;18.00;99.90
56426;DHT22;42330;43.620;3.856;2022-11-09T06:20:26;18.10;99.90
56426;DHT22;42330;43.620;3.856;2022-11-09T06:22:56;18.10;99.90
56426;DHT22;42330;43.620;3.856;2022-11-09T06:25:23;18.10;99.90
56426;DHT22;42330;43.620;3.856;2022-11-09T06:27:49;18.10;99.90
56426;DHT22;42330;43.620;3.856;2022-11-09T06:30:15;18.10;99.90
56426;DHT22;42330;43.620;3.856;2022-11-09T06:32:41;18.10;99.90
56426;DHT22;42330;43.620;3.856;2022-11-09T06:35:07;18.10;99.90
56426;DHT22;42330;43.620;3.856;2022-11-09T06:37:33;18.00;99.90
56426;DHT22;42330;43.620;3.856;2022-11-09T06:39:58;18.10;99.90
56426;DHT22;42330;43.620;3.856;2022-11-09T06:42:24;18.10;99.90
56426;DHT22;42330;43.620;3.856;2022-11-09T06:44:50;18.10;99.90
56426;DHT22;42330;43.620;3.856;2022-11-09T06:47:15;18.10;99.90
56426;DHT22;42330;43.620;3.856;2022-11-09T06:49:41;18.10;99.90
56426;DHT22;42330;43.620;3.856;2022-11-09T06:52:07;18.10;99.90
56426;DHT22;42330;43.620;3.856;2022-11-09T06:54:32;18.10;99.90
56426;DHT22;42330;43.620;3.856;2022-11-09T06:56:59;18.10;99.90
56426;DHT22;42330;43.620;3.856;2022-11-09T06:59:24;18.10;99.90
56426;DHT22;42330;43.620;3.856;2022-11-09T07:01:50;18.10;99.90
56426;DHT22;42330;43.620;3.856;2022-11-09T07:04:16;18.10;99.90
56426;DHT22;42330;43.620;3.856;2022-11-09T07:06:41;18.10;99.90
56426;DHT22;42330;43.620;3.856;2022-11-09T07:09:08;18.10;99.90
56426;DHT22;42330;43.620;3.856;2022-11-09T07:11:33;18.10;99.90
56426;DHT22;42330;43.620;3.856;2022-11-09T07:13:59;18.10;99.90
56426;DHT22;42330;43.620;3.856;2022-11-09T07:16:27;18.10;99.90
56426;DHT22;42330;43.620;3.856;2022-11-09T07:18:53;18.10;99.90
56426;DHT22;42330;43.620;3.856;2022-11-09T07:21:19;18.10;99.90
56426;DHT22;42330;43.620;3.856;2022-11-09T07:23:46;18.10;99.90
56426;DHT22;42330;43.620;3.856;2022-11-09T07:26:12;18.10;99.90
56426;DHT22;42330;43.620;3.856;2022-11-09T07:28:38;18.10;99.90
56426;DHT22;42330;43.620;3.856;2022-11-09T07:31:04;18.10;99.90
56426;DHT22;42330;43.620;3.856;2022-11-09T07:33:30;18.10;99.90
56426;DHT22;42330;43.620;3.856;2022-11-09T07:35:58;18.10;99.90
56426;DHT22;42330;43.620;3.856;2022-11-09T07:38:24;18.10;99.90
56426;DHT22;42330;43.620;3.856;2022-11-09T07:40:49;18.10;99.90
56426;DHT22;42330;43.620;3.856;2022-11-09T07:43:15;18.10;99.90
56426;DHT22;42330;43.620;3.856;2022-11-09T07:45:42;18.10;99.90
56426;DHT22;42330;43.620;3.856;2022-11-09T07:48:09;18.10;99.90
56426;DHT22;42330;43.620;3.856;2022-11-09T07:50:36;18.10;99.90
56426;DHT22;42330;43.620;3.856;2022-11-09T07:53:03;18.20;99.90
56426;DHT22;42330;43.620;3.856;2022-11-09T07:55:30;18.20;99.90
56426;DHT22;42330;43.620;3.856;2022-11-09T07:58:01;18.20;99.90
56426;DHT22;42330;43.620;3.856;2022-11-09T08:00:29;18.20;99.90
56426;DHT22;42330;43.620;3.856;2022-11-09T08:02:54;18.30;99.90
56426;DHT22;42330;43.620;3.856;2022-11-09T08:05:20;18.30;99.90
56426;DHT22;42330;43.620;3.856;2022-11-09T08:07:46;18.20;99.90
56426;DHT22;42330;43.620;3.856;2022-11-09T08:10:12;18.20;99.90
56426;DHT22;42330;43.620;3.856;2022-11-09T08:12:38;18.30;99.90
56426;DHT22;42330;43.620;3.856;2022-11-09T08:15:05;18.30;99.90
56426;DHT22;42330;43.620;3.856;2022-11-09T08:17:31;18.30;99.90
56426;DHT22;42330;43.620;3.856;2022-11-09T08:19:57;18.40;99.90
56426;DHT22;42330;43.620;3.856;2022-11-09T08:22:22;18.40;99.90
56426;DHT22;42330;43.620;3.856;2022-11-09T08:24:48;18.50;99.90
56426;DHT22;42330;43.620;3.856;2022-11-09T08:27:14;18.50;99.90
56426;DHT22;42330;43.620;3.856;2022-11-09T08:29:39;18.50;99.90
56426;DHT22;42330;43.620;3.856;2022-11-09T08:32:05;18.50;99.90
56426;DHT22;42330;43.620;3.856;2022-11-09T08:34:31;18.50;99.90
56426;DHT22;42330;43.620;3.856;2022-11-09T08:36:59;18.50;99.90
56426;DHT22;42330;43.620;3.856;2022-11-09T08:39:25;18.50;99.90
56426;DHT22;42330;43.620;3.856;2022-11-09T08:41:51;18.60;99.90
56426;DHT22;42330;43.620;3.856;2022-11-09T08:44:16;18.60;99.90
56426;DHT22;42330;43.620;3.856;2022-11-09T08:46:42;18.60;99.90
56426;DHT22;42330;43.620;3.856;2022-11-09T08:49:08;18.60;99.90
56426;DHT22;42330;43.620;3.856;2022-11-09T08:51:33;18.60;99.90
56426;DHT22;42330;43.620;3.856;2022-11-09T08:53:59;18.60;99.90
56426;DHT22;42330;43.620;3.856;2022-11-09T08:56:25;18.60;99.90
56426;DHT22;42330;43.620;3.856;2022-11-09T08:58:50;18.60;99.90
56426;DHT22;42330;43.620;3.856;2022-11-09T09:01:16;18.70;99.90
56426;DHT22;42330;43.620;3.856;2022-11-09T09:03:42;18.60;99.90
56426;DHT22;42330;43.620;3.856;2022-11-09T09:06:08;18.60;99.90
56426;DHT22;42330;43.620;3.856;2022-11-09T09:08:34;18.70;99.90
56426;DHT22;42330;43.620;3.856;2022-11-09T09:11:03;18.70;99.90
56426;DHT22;42330;43.620;3.856;2022-11-09T09:13:30;18.70;99.90
56426;DHT22;42330;43.620;3.856;2022-11-09T09:15:56;18.70;99.90
56426;DHT22;42330;43.620;3.856;2022-11-09T09:18:22;18.80;99.90
56426;DHT22;42330;43.620;3.856;2022-11-09T09:20:47;18.80;99.90
56426;DHT22;42330;43.620;3.856;2022-11-09T09:23:13;18.70;99.90
56426;DHT22;42330;43.620;3.856;2022-11-09T09:25:41;18.70;99.90
56426;DHT22;42330;43.620;3.856;2022-11-09T09:28:08;18.70;99.90
56426;DHT22;42330;43.620;3.856;2022-11-09T09:30:33;18.70;99.90
56426;DHT22;42330;43.620;3.856;2022-11-09T09:32:59;18.70;99.90
56426;DHT22;42330;43.620;3.856;2022-11-09T09:35:26;18.70;99.90
56426;DHT22;42330;43.620;3.856;2022-11-09T09:37:53;18.70;99.90
56426;DHT22;42330;43.620;3.856;2022-11-09T09:40:27;18.70;99.90
56426;DHT22;42330;43.620;3.856;2022-11-09T09:42:54;18.80;99.90
56426;DHT22;42330;43.620;3.856;2022-11-09T09:45:24;18.80;99.90
56426;DHT22;42330;43.620;3.856;2022-11-09T09:48:15;18.80;99.90
56426;DHT22;42330;43.620;3.856;2022-11-09T09:50:49;18.80;99.90
56426;DHT22;42330;43.620;3.856;2022-11-09T09:56:05;18.90;99.90
56426;DHT22;42330;43.620;3.856;2022-11-09T09:58:38;18.90;99.90
56426;DHT22;42330;43.620;3.856;2022-11-09T10:01:15;19.00;99.90
56426;DHT22;42330;43.620;3.856;2022-11-09T10:03:41;19.00;99.90
56426;DHT22;42330;43.620;3.856;2022-11-09T10:11:59;19.10;99.90
56426;DHT22;42330;43.620;3.856;2022-11-09T10:17:37;19.20;99.90
56426;DHT22;42330;43.620;3.856;2022-11-09T10:20:42;19.20;99.90
56426;DHT22;42330;43.620;3.856;2022-11-09T10:23:19;19.20;99.90
56426;DHT22;42330;43.620;3.856;2022-11-09T10:25:53;19.20;99.90
56426;DHT22;42330;43.620;3.856;2022-11-09T10:28:27;19.30;99.90
56426;DHT22;42330;43.620;3.856;2022-11-09T10:30:54;19.30;99.90
56426;DHT22;42330;43.620;3.856;2022-11-09T10:33:20;19.30;99.90
56426;DHT22;42330;43.620;3.856;2022-11-09T10:36:17;19.40;99.90
56426;DHT22;42330;43.620;3.856;2022-11-09T10:38:48;19.40;99.90
56426;DHT22;42330;43.620;3.856;2022-11-09T10:41:42;19.50;99.90
56426;DHT22;42330;43.620;3.856;2022-11-09T10:44:16;19.70;99.90
56426;DHT22;42330;43.620;3.856;2022-11-09T10:49:28;19.80;99.90
56426;DHT22;42330;43.620;3.856;2022-11-09T10:51:54;19.80;99.90
56426;DHT22;42330;43.620;3.856;2022-11-09T10:54:25;19.80;99.90
56426;DHT22;42330;43.620;3.856;2022-11-09T10:59:48;19.80;99.90
56426;DHT22;42330;43.620;3.856;2022-11-09T11:07:37;19.70;99.90
56426;DHT22;42330;43.620;3.856;2022-11-09T11:13:23;19.70;99.90
56426;DHT22;42330;43.620;3.856;2022-11-09T11:15:38;19.60;99.90
56426;DHT22;42330;43.620;3.856;2022-11-09T11:18:14;19.60;99.90
56426;DHT22;42330;43.620;3.856;2022-11-09T11:20:40;19.60;99.90
56426;DHT22;42330;43.620;3.856;2022-11-09T11:23:21;19.60;99.90
56426;DHT22;42330;43.620;3.856;2022-11-09T11:28:43;19.70;99.90
56426;DHT22;42330;43.620;3.856;2022-11-09T11:31:14;19.70;99.90
56426;DHT22;42330;43.620;3.856;2022-11-09T11:33:41;19.70;99.90
56426;DHT22;42330;43.620;3.856;2022-11-09T11:39:02;19.80;99.90
56426;DHT22;42330;43.620;3.856;2022-11-09T11:47:39;19.80;99.90
56426;DHT22;42330;43.620;3.856;2022-11-09T11:50:39;19.80;99.90
56426;DHT22;42330;43.620;3.856;2022-11-09T11:55:49;19.80;99.90
56426;DHT22;42330;43.620;3.856;2022-11-09T12:07:19;20.20;99.90
56426;DHT22;42330;43.620;3.856;2022-11-09T12:21:30;20.30;99.90
56426;DHT22;42330;43.620;3.856;2022-11-09T12:29:19;20.30;99.90
56426;DHT22;42330;43.620;3.856;2022-11-09T12:37:22;20.20;99.90
56426;DHT22;42330;43.620;3.856;2022-11-09T12:39:52;20.10;99.90
56426;DHT22;42330;43.620;3.856;2022-11-09T12:42:35;20.10;99.90
56426;DHT22;42330;43.620;3.856;2022-11-09T12:47:43;20.00;99.90
56426;DHT22;42330;43.620;3.856;2022-11-09T12:50:16;20.00;99.90
56426;DHT22;42330;43.620;3.856;2022-11-09T12:52:43;19.90;99.90
56426;DHT22;42330;43.620;3.856;2022-11-09T12:55:20;19.90;99.90
56426;DHT22;42330;43.620;3.856;2022-11-09T12:57:48;19.90;99.90
56426;DHT22;42330;43.620;3.856;2022-11-09T13:03:06;19.90;99.90
56426;DHT22;42330;43.620;3.856;2022-11-09T13:05:39;19.90;99.90
56426;DHT22;42330;43.620;3.856;2022-11-09T13:08:06;19.90;99.90
56426;DHT22;42330;43.620;3.856;2022-11-09T13:10:33;19.90;99.90
56426;DHT22;42330;43.620;3.856;2022-11-09T13:23:54;19.80;99.90
56426;DHT22;42330;43.620;3.856;2022-11-09T13:45:32;20.80;99.90
56426;DHT22;42330;43.620;3.856;2022-11-09T13:47:59;20.60;99.90
56426;DHT22;42330;43.620;3.856;2022-11-09T13:50:26;20.50;99.90
56426;DHT22;42330;43.620;3.856;2022-11-09T13:52:55;20.20;99.90
56426;DHT22;42330;43.620;3.856;2022-11-09T13:57:51;20.00;99.90
56426;DHT22;42330;43.620;3.856;2022-11-09T14:00:20;20.10;99.90
56426;DHT22;42330;43.620;3.856;2022-11-09T14:05:44;20.10;99.90
56426;DHT22;42330;43.620;3.856;2022-11-09T14:08:26;20.10;99.90
56426;DHT22;42330;43.620;3.856;2022-11-09T14:14:05;20.40;99.90
56426;DHT22;42330;43.620;3.856;2022-11-09T14:16:51;20.40;99.90
56426;DHT22;42330;43.620;3.856;2022-11-09T14:19:37;20.40;99.90
56426;DHT22;42330;43.620;3.856;2022-11-09T14:22:13;20.30;99.90
56426;DHT22;42330;43.620;3.856;2022-11-09T14:24:40;20.20;99.90
56426;DHT22;42330;43.620;3.856;2022-11-09T14:32:45;20.00;99.90
56426;DHT22;42330;43.620;3.856;2022-11-09T14:37:53;20.00;99.90
56426;DHT22;42330;43.620;3.856;2022-11-09T14:40:29;20.00;99.90
56426;DHT22;42330;43.620;3.856;2022-11-09T14:43:23;20.00;99.90
56426;DHT22;42330;43.620;3.856;2022-11-09T14:45:57;20.10;99.90
56426;DHT22;42330;43.620;3.856;2022-11-09T14:48:23;20.00;99.90
56426;DHT22;42330;43.620;3.856;2022-11-09T14:50:51;19.90;99.90
56426;DHT22;42330;43.620;3.856;2022-11-09T14:53:21;19.80;99.90
56426;DHT22;42330;43.620;3.856;2022-11-09T14:55:52;19.80;99.90
56426;DHT22;42330;43.620;3.856;2022-11-09T14:58:19;19.80;99.90
56426;DHT22;42330;43.620;3.856;2022-11-09T15:03:43;19.60;99.90
56426;DHT22;42330;43.620;3.856;2022-11-09T15:06:12;19.70;99.90
56426;DHT22;42330;43.620;3.856;2022-11-09T15:08:53;19.60;99.90
56426;DHT22;42330;43.620;3.856;2022-11-09T15:11:19;19.60;99.90
56426;DHT22;42330;43.620;3.856;2022-11-09T15:13:46;19.60;99.90
56426;DHT22;42330;43.620;3.856;2022-11-09T15:16:25;19.50;99.90
56426;DHT22;42330;43.620;3.856;2022-11-09T15:18:51;19.60;99.90
56426;DHT22;42330;43.620;3.856;2022-11-09T15:21:18;19.50;99.90
56426;DHT22;42330;43.620;3.856;2022-11-09T15:23:47;19.50;99.90
56426;DHT22;42330;43.620;3.856;2022-11-09T15:26:41;19.50;99.90
56426;DHT22;42330;43.620;3.856;2022-11-09T15:29:31;19.40;99.90
56426;DHT22;42330;43.620;3.856;2022-11-09T15:32:17;19.40;99.90
56426;DHT22;42330;43.620;3.856;2022-11-09T15:34:55;19.30;99.90
56426;DHT22;42330;43.620;3.856;2022-11-09T15:37:30;19.30;99.90
56426;DHT22;42330;43.620;3.856;2022-11-09T15:39:57;19.30;99.90
56426;DHT22;42330;43.620;3.856;2022-11-09T15:42:24;19.30;99.90
56426;DHT22;42330;43.620;3.856;2022-11-09T15:44:55;19.20;99.90
56426;DHT22;42330;43.620;3.856;2022-11-09T15:49:49;19.20;99.90
56426;DHT22;42330;43.620;3.856;2022-11-09T15:52:15;19.20;99.90
56426;DHT22;42330;43.620;3.856;2022-11-09T15:54:40;19.20;99.90
56426;DHT22;42330;43.620;3.856;2022-11-09T15:57:06;19.10;99.90
56426;DHT22;42330;43.620;3.856;2022-11-09T15:59:35;19.10;99.90
56426;DHT22;42330;43.620;3.856;2022-11-09T16:02:00;19.10;99.90
56426;DHT22;42330;43.620;3.856;2022-11-09T16:04:26;19.00;99.90
56426;DHT22;42330;43.620;3.856;2022-11-09T16:06:52;18.90;99.90
56426;DHT22;42330;43.620;3.856;2022-11-09T16:09:17;18.80;99.90
56426;DHT22;42330;43.620;3.856;2022-11-09T16:11:43;18.70;99.90
56426;DHT22;42330;43.620;3.856;2022-11-09T16:14:08;18.60;99.90
56426;DHT22;42330;43.620;3.856;2022-11-09T16:16:34;18.50;99.90
56426;DHT22;42330;43.620;3.856;2022-11-09T16:19:00;18.40;99.90
56426;DHT22;42330;43.620;3.856;2022-11-09T16:21:25;18.30;99.90
56426;DHT22;42330;43.620;3.856;2022-11-09T16:23:51;18.30;99.90
56426;DHT22;42330;43.620;3.856;2022-11-09T16:26:19;18.40;99.90
56426;DHT22;42330;43.620;3.856;2022-11-09T16:28:45;18.30;99.90
56426;DHT22;42330;43.620;3.856;2022-11-09T16:31:11;18.20;99.90
56426;DHT22;42330;43.620;3.856;2022-11-09T16:33:38;18.20;99.90
56426;DHT22;42330;43.620;3.856;2022-11-09T16:36:07;18.10;99.90
56426;DHT22;42330;43.620;3.856;2022-11-09T16:38:40;18.00;99.90
56426;DHT22;42330;43.620;3.856;2022-11-09T16:41:06;17.90;99.90
56426;DHT22;42330;43.620;3.856;2022-11-09T16:43:35;17.90;99.90
56426;DHT22;42330;43.620;3.856;2022-11-09T16:46:01;17.90;99.90
56426;DHT22;42330;43.620;3.856;2022-11-09T16:48:27;17.90;99.90
56426;DHT22;42330;43.620;3.856;2022-11-09T16:50:56;17.80;99.90
56426;DHT22;42330;43.620;3.856;2022-11-09T16:53:22;17.80;99.90
56426;DHT22;42330;43.620;3.856;2022-11-09T16:55:47;17.80;99.90
56426;DHT22;42330;43.620;3.856;2022-11-09T16:58:13;17.80;99.90
56426;DHT22;42330;43.620;3.856;2022-11-09T17:00:46;17.80;99.90
56426;DHT22;42330;43.620;3.856;2022-11-09T17:03:13;17.80;99.90
56426;DHT22;42330;43.620;3.856;2022-11-09T17:05:40;17.80;99.90
56426;DHT22;42330;43.620;3.856;2022-11-09T17:08:06;17.80;99.90
56426;DHT22;42330;43.620;3.856;2022-11-09T17:10:32;17.70;99.90
56426;DHT22;42330;43.620;3.856;2022-11-09T17:12:58;17.80;99.90
56426;DHT22;42330;43.620;3.856;2022-11-09T17:15:24;17.80;99.90
56426;DHT22;42330;43.620;3.856;2022-11-09T17:17:50;17.80;99.90
56426;DHT22;42330;43.620;3.856;2022-11-09T17:20:16;17.80;99.90
56426;DHT22;42330;43.620;3.856;2022-11-09T17:22:41;17.70;99.90
56426;DHT22;42330;43.620;3.856;2022-11-09T17:25:07;17.80;99.90
56426;DHT22;42330;43.620;3.856;2022-11-09T17:27:33;17.70;99.90
56426;DHT22;42330;43.620;3.856;2022-11-09T17:29:59;17.70;99.90
56426;DHT22;42330;43.620;3.856;2022-11-09T17:32:24;17.70;99.90
56426;DHT22;42330;43.620;3.856;2022-11-09T17:34:53;17.70;98.80
56426;DHT22;42330;43.620;3.856;2022-11-09T17:37:19;17.70;97.60
56426;DHT22;42330;43.620;3.856;2022-11-09T17:39:44;17.70;97.90
56426;DHT22;42330;43.620;3.856;2022-11-09T17:42:10;17.70;96.70
56426;DHT22;42330;43.620;3.856;2022-11-09T17:44:36;17.70;99.20
56426;DHT22;42330;43.620;3.856;2022-11-09T17:47:03;17.60;98.50
56426;DHT22;42330;43.620;3.856;2022-11-09T17:49:29;17.60;98.30